Time;durP1;ratioP1;P1;durP2;ratioP2;P2;SDS_P1;SDS_P2;PMS_P1;PMS_P2;Temp;Humidity;BMP_temperature;BMP_pressure;BME280_temperature;BME280_humidity;BME280_pressure;Samples;Min_cycle;Max_cycle;Signal;HPM_P1;HPM_P2
2022/06/15 00:00:44;;;;;;;;;;;21.90;47.20;;;;;;5029487;28;19909;-79
2022/06/15 00:03:13;;;;;;;;;;;21.90;47.20;;;;;;5028105;28;19909;-78
2022/06/15 00:05:39;;;;;;;;;;;21.90;47.20;;;;;;5028001;28;19913;-79
2022/06/15 00:08:05;;;;;;;;;;;21.90;47.30;;;;;;5031367;28;19979;-80
2022/06/15 00:10:31;;;;;;;;;;;21.80;47.20;;;;;;5029494;28;20013;-81
2022/06/15 00:12:56;;;;;;;;;;;21.80;47.10;;;;;;5031803;28;20374;-81
2022/06/15 00:15:22;;;;;;;;;;;21.80;47.10;;;;;;5031775;28;19920;-81
2022/06/15 00:17:48;;;;;;;;;;;21.80;47.10;;;;;;5031178;28;19971;-78
2022/06/15 00:20:13;;;;;;;;;;;21.80;47.00;;;;;;5030279;28;19921;-78
2022/06/15 00:22:39;;;;;;;;;;;21.80;47.10;;;;;;5030811;28;19977;-78
2022/06/15 00:25:05;;;;;;;;;;;21.70;47.10;;;;;;5031940;28;20369;-80
2022/06/15 00:27:31;;;;;;;;;;;21.70;47.40;;;;;;5034367;28;19909;-78
2022/06/15 00:29:57;;;;;;;;;;;21.70;47.40;;;;;;5033613;28;19917;-80
2022/06/15 00:32:22;;;;;;;;;;;21.70;47.40;;;;;;5033705;28;20273;-79
2022/06/15 00:34:48;;;;;;;;;;;21.70;47.40;;;;;;5033756;28;19909;-79
2022/06/15 00:37:13;;;;;;;;;;;21.70;47.30;;;;;;5034910;28;19923;-80
2022/06/15 00:39:39;;;;;;;;;;;21.70;47.10;;;;;;5034406;28;19924;-79
2022/06/15 00:42:05;;;;;;;;;;;21.70;47.10;;;;;;5034971;28;19913;-79
2022/06/15 00:44:32;;;;;;;;;;;21.70;47.20;;;;;;5034434;28;19910;-79
2022/06/15 00:47:04;;;;;;;;;;;21.60;47.10;;;;;;5034507;28;19963;-79
2022/06/15 00:49:41;;;;;;;;;;;21.60;47.10;;;;;;5033117;28;19913;-79
2022/06/15 00:52:10;;;;;;;;;;;21.60;47.40;;;;;;5032687;28;19964;-79
2022/06/15 00:54:36;;;;;;;;;;;21.60;47.50;;;;;;5032577;28;19909;-78
2022/06/15 00:57:01;;;;;;;;;;;21.60;47.50;;;;;;5034042;28;19977;-78
2022/06/15 00:59:53;;;;;;;;;;;21.50;47.40;;;;;;5031860;28;19924;-78
2022/06/15 01:02:19;;;;;;;;;;;21.50;47.40;;;;;;5029575;28;20003;-78
2022/06/15 01:04:50;;;;;;;;;;;21.60;47.60;;;;;;5033709;28;20380;-80
2022/06/15 01:07:27;;;;;;;;;;;21.50;47.60;;;;;;5033869;28;19964;-79
2022/06/15 01:10:00;;;;;;;;;;;21.50;47.50;;;;;;5033550;28;20288;-80
2022/06/15 01:12:31;;;;;;;;;;;21.50;47.60;;;;;;5035037;28;19909;-79
2022/06/15 01:15:10;;;;;;;;;;;21.40;47.60;;;;;;5035206;28;19956;-79
2022/06/15 01:17:45;;;;;;;;;;;21.40;47.80;;;;;;5033379;28;19983;-79
2022/06/15 01:20:20;;;;;;;;;;;21.40;47.90;;;;;;5032403;28;19959;-79
2022/06/15 01:22:49;;;;;;;;;;;21.40;47.80;;;;;;5033000;28;19913;-79
2022/06/15 01:25:20;;;;;;;;;;;21.40;48.00;;;;;;5034430;28;19910;-79
2022/06/15 01:28:13;;;;;;;;;;;21.40;47.80;;;;;;5034175;28;19909;-79
2022/06/15 01:30:42;;;;;;;;;;;21.40;47.90;;;;;;5031392;28;20426;-80
2022/06/15 01:33:07;;;;;;;;;;;21.40;48.10;;;;;;5033673;28;20388;-80
2022/06/15 01:35:42;;;;;;;;;;;21.40;48.90;;;;;;5032064;28;19923;-81
2022/06/15 01:38:26;;;;;;;;;;;21.30;48.90;;;;;;5033616;28;19920;-80
2022/06/15 01:40:56;;;;;;;;;;;21.30;48.40;;;;;;5033643;28;19916;-79
2022/06/15 01:43:25;;;;;;;;;;;21.30;48.20;;;;;;5032287;28;19920;-79
2022/06/15 01:45:51;;;;;;;;;;;21.30;48.20;;;;;;5033377;28;19954;-80
2022/06/15 01:48:17;;;;;;;;;;;21.30;48.10;;;;;;5032307;28;19913;-79
2022/06/15 01:50:47;;;;;;;;;;;21.30;48.00;;;;;;5032647;28;19977;-79
2022/06/15 01:53:15;;;;;;;;;;;21.30;48.00;;;;;;5032182;28;20281;-80
2022/06/15 01:55:44;;;;;;;;;;;21.30;48.00;;;;;;5033241;28;19910;-80
2022/06/15 01:58:11;;;;;;;;;;;21.30;48.00;;;;;;5033226;28;19913;-81
2022/06/15 02:00:36;;;;;;;;;;;21.20;47.70;;;;;;5032249;28;20488;-78
2022/06/15 02:03:05;;;;;;;;;;;21.20;47.90;;;;;;5031694;28;19917;-81
2022/06/15 02:05:39;;;;;;;;;;;21.20;47.90;;;;;;5033049;28;19917;-80
2022/06/15 02:08:22;;;;;;;;;;;21.20;47.90;;;;;;5033172;28;20368;-80
2022/06/15 02:10:51;;;;;;;;;;;21.20;47.90;;;;;;5031050;28;19913;-80
2022/06/15 02:13:21;;;;;;;;;;;21.00;48.10;;;;;;5032902;28;19944;-79
2022/06/15 02:15:49;;;;;;;;;;;21.10;48.10;;;;;;5031569;28;20443;-79
2022/06/15 02:18:16;;;;;;;;;;;21.10;48.00;;;;;;5032671;28;19944;-79
2022/06/15 02:20:44;;;;;;;;;;;21.10;48.10;;;;;;5032004;28;19909;-80
2022/06/15 02:23:11;;;;;;;;;;;21.10;48.20;;;;;;5032692;28;20344;-79
2022/06/15 02:25:41;;;;;;;;;;;21.00;48.00;;;;;;5031752;28;19959;-78
2022/06/15 02:28:07;;;;;;;;;;;21.00;48.10;;;;;;5030318;28;19959;-79
2022/06/15 02:30:32;;;;;;;;;;;21.00;48.20;;;;;;5032067;28;19944;-79
2022/06/15 02:33:23;;;;;;;;;;;21.00;48.40;;;;;;5032570;28;19909;-79
2022/06/15 02:35:48;;;;;;;;;;;21.00;48.30;;;;;;5032707;28;19940;-81
2022/06/15 02:38:14;;;;;;;;;;;21.00;48.40;;;;;;5032455;28;19967;-79
2022/06/15 02:40:39;;;;;;;;;;;20.90;48.40;;;;;;5031749;28;19925;-79
2022/06/15 02:43:05;;;;;;;;;;;20.90;48.40;;;;;;5032359;28;19913;-79
2022/06/15 02:45:35;;;;;;;;;;;20.90;48.40;;;;;;5032083;28;19909;-81
2022/06/15 02:48:01;;;;;;;;;;;20.90;48.40;;;;;;5031761;28;19909;-81
2022/06/15 02:50:28;;;;;;;;;;;20.90;48.50;;;;;;5031870;28;19913;-80
2022/06/15 02:52:57;;;;;;;;;;;20.90;48.50;;;;;;5032328;28;19913;-81
2022/06/15 02:55:24;;;;;;;;;;;20.80;48.40;;;;;;5030999;28;19913;-81
2022/06/15 02:58:00;;;;;;;;;;;20.80;48.50;;;;;;5031975;28;19913;-81
2022/06/15 03:00:26;;;;;;;;;;;20.80;48.50;;;;;;5031343;28;19963;-81
2022/06/15 03:02:51;;;;;;;;;;;20.80;48.50;;;;;;5030656;28;19913;-81
2022/06/15 03:05:17;;;;;;;;;;;20.80;48.40;;;;;;5030845;28;19913;-80
2022/06/15 03:07:42;;;;;;;;;;;20.70;48.30;;;;;;5032016;28;19916;-79
2022/06/15 03:10:08;;;;;;;;;;;20.70;48.30;;;;;;5029320;28;20402;-80
2022/06/15 03:12:33;;;;;;;;;;;20.70;48.30;;;;;;5031637;28;19992;-80
2022/06/15 03:14:59;;;;;;;;;;;20.70;48.50;;;;;;5030217;28;19910;-79
2022/06/15 03:17:25;;;;;;;;;;;20.70;48.50;;;;;;5031396;28;20320;-79
2022/06/15 03:19:50;;;;;;;;;;;20.70;48.60;;;;;;5029362;28;19913;-79
2022/06/15 03:22:16;;;;;;;;;;;20.60;48.50;;;;;;5031407;28;20007;-80
2022/06/15 03:24:41;;;;;;;;;;;20.70;48.50;;;;;;5030147;28;20316;-79
2022/06/15 03:27:07;;;;;;;;;;;20.60;48.60;;;;;;5030335;28;19921;-80
2022/06/15 03:29:32;;;;;;;;;;;20.60;48.70;;;;;;5029381;28;19921;-80
2022/06/15 03:31:58;;;;;;;;;;;20.60;49.00;;;;;;5030211;28;20008;-80
2022/06/15 03:34:23;;;;;;;;;;;20.60;48.90;;;;;;5030254;28;20091;-80
2022/06/15 03:36:49;;;;;;;;;;;20.60;49.00;;;;;;5031100;28;19937;-78
2022/06/15 03:39:15;;;;;;;;;;;20.50;49.00;;;;;;5029051;28;20288;-79
2022/06/15 03:41:41;;;;;;;;;;;20.50;48.90;;;;;;5031131;28;19909;-78
2022/06/15 03:44:06;;;;;;;;;;;20.50;48.90;;;;;;5029802;28;19968;-78
2022/06/15 03:46:32;;;;;;;;;;;20.50;49.00;;;;;;5029391;28;19920;-78
2022/06/15 03:48:57;;;;;;;;;;;20.50;48.90;;;;;;5027041;28;20323;-78
2022/06/15 03:51:23;;;;;;;;;;;20.50;49.10;;;;;;5029837;28;19913;-78
2022/06/15 03:53:48;;;;;;;;;;;20.50;49.00;;;;;;5029787;28;20435;-80
2022/06/15 03:56:14;;;;;;;;;;;20.50;49.10;;;;;;5030997;28;19918;-80
2022/06/15 03:58:39;;;;;;;;;;;20.50;49.10;;;;;;5031935;28;19995;-80
2022/06/15 04:01:05;;;;;;;;;;;20.50;49.10;;;;;;5036063;28;19928;-81
2022/06/15 04:03:30;;;;;;;;;;;20.30;49.00;;;;;;5035969;28;20004;-81
2022/06/15 04:05:57;;;;;;;;;;;20.50;49.10;;;;;;5034799;28;19918;-80
2022/06/15 04:08:37;;;;;;;;;;;20.50;49.20;;;;;;5041406;28;19932;-82
2022/06/15 04:11:06;;;;;;;;;;;20.40;49.20;;;;;;5042550;28;19909;-82
2022/06/15 04:13:32;;;;;;;;;;;20.50;49.30;;;;;;5037337;28;20283;-82
2022/06/15 04:15:57;;;;;;;;;;;20.40;49.40;;;;;;5033436;28;19909;-79
2022/06/15 04:18:23;;;;;;;;;;;20.40;49.20;;;;;;5034373;28;19917;-80
2022/06/15 04:20:49;;;;;;;;;;;20.40;49.10;;;;;;5034420;28;19913;-79
2022/06/15 04:23:16;;;;;;;;;;;20.50;49.20;;;;;;5034582;28;19952;-80
2022/06/15 04:25:43;;;;;;;;;;;20.50;49.50;;;;;;5034898;28;20004;-82
2022/06/15 04:28:09;;;;;;;;;;;20.40;49.30;;;;;;5033856;28;19916;-80
2022/06/15 04:30:35;;;;;;;;;;;20.50;49.50;;;;;;5033872;28;20008;-80
2022/06/15 04:33:01;;;;;;;;;;;20.40;49.30;;;;;;5034608;28;19941;-79
2022/06/15 04:35:26;;;;;;;;;;;20.50;49.60;;;;;;5033136;28;20010;-78
2022/06/15 04:37:52;;;;;;;;;;;20.50;49.80;;;;;;5034336;28;19963;-78
2022/06/15 04:40:18;;;;;;;;;;;20.50;49.60;;;;;;5032050;28;19909;-78
2022/06/15 04:42:43;;;;;;;;;;;20.50;49.70;;;;;;5034218;28;19915;-78
2022/06/15 04:45:10;;;;;;;;;;;20.50;49.80;;;;;;5032754;28;20030;-78
2022/06/15 04:47:35;;;;;;;;;;;20.60;49.90;;;;;;5033913;28;19916;-78
2022/06/15 04:50:01;;;;;;;;;;;20.60;49.70;;;;;;5033304;28;19909;-78
2022/06/15 04:52:26;;;;;;;;;;;20.70;49.70;;;;;;5027030;28;19917;-78
2022/06/15 04:54:52;;;;;;;;;;;20.70;49.80;;;;;;5032084;28;20024;-77
2022/06/15 04:57:17;;;;;;;;;;;20.70;49.50;;;;;;5031132;28;20400;-78
2022/06/15 04:59:43;;;;;;;;;;;20.90;49.60;;;;;;5031544;28;19940;-78
2022/06/15 05:02:10;;;;;;;;;;;20.90;49.70;;;;;;5033718;28;19910;-78
2022/06/15 05:04:35;;;;;;;;;;;21.00;49.50;;;;;;5033625;28;19916;-78
2022/06/15 05:07:01;;;;;;;;;;;21.10;49.60;;;;;;5033719;28;19909;-78
2022/06/15 05:09:26;;;;;;;;;;;21.10;49.40;;;;;;5033109;28;19971;-77
2022/06/15 05:11:52;;;;;;;;;;;21.10;49.30;;;;;;5033156;28;19909;-80
2022/06/15 05:14:17;;;;;;;;;;;21.30;49.70;;;;;;5033614;28;19913;-78
2022/06/15 05:16:43;;;;;;;;;;;21.50;50.10;;;;;;5033695;28;19913;-80
2022/06/15 05:19:09;;;;;;;;;;;21.50;50.40;;;;;;5032823;28;20365;-79
2022/06/15 05:21:38;;;;;;;;;;;21.60;49.70;;;;;;5033712;28;19909;-79
2022/06/15 05:24:04;;;;;;;;;;;21.70;49.80;;;;;;5032631;28;20277;-79
2022/06/15 05:26:29;;;;;;;;;;;21.80;49.80;;;;;;5034067;28;19909;-80
2022/06/15 05:28:55;;;;;;;;;;;21.80;49.20;;;;;;5033164;28;19928;-80
2022/06/15 05:31:21;;;;;;;;;;;21.90;49.20;;;;;;5034051;28;20432;-79
2022/06/15 05:33:53;;;;;;;;;;;22.00;49.10;;;;;;5032373;28;19920;-79
2022/06/15 05:36:20;;;;;;;;;;;22.20;48.90;;;;;;5031899;28;20296;-79
2022/06/15 05:38:46;;;;;;;;;;;22.20;48.40;;;;;;5032820;28;19936;-79
2022/06/15 05:41:11;;;;;;;;;;;22.30;48.20;;;;;;5033465;28;20349;-79
2022/06/15 05:46:35;;;;;;;;;;;22.50;48.00;;;;;;5033661;28;19909;-78
2022/06/15 05:49:01;;;;;;;;;;;22.60;47.80;;;;;;5032825;28;19909;-80
2022/06/15 05:51:27;;;;;;;;;;;22.70;47.70;;;;;;5034337;28;19924;-80
2022/06/15 05:53:53;;;;;;;;;;;22.80;47.40;;;;;;5034016;28;19913;-79
2022/06/15 05:56:19;;;;;;;;;;;22.80;47.20;;;;;;5032973;28;19956;-79
2022/06/15 05:58:44;;;;;;;;;;;22.90;47.10;;;;;;5032904;28;19910;-79
2022/06/15 06:01:11;;;;;;;;;;;23.00;46.80;;;;;;5034504;28;19916;-79
2022/06/15 06:03:36;;;;;;;;;;;23.20;46.80;;;;;;5034304;28;20505;-80
2022/06/15 06:06:02;;;;;;;;;;;23.40;46.10;;;;;;5033422;28;19909;-80
2022/06/15 06:08:27;;;;;;;;;;;23.70;45.40;;;;;;5032442;28;20008;-80
2022/06/15 06:10:53;;;;;;;;;;;24.30;44.40;;;;;;5031753;28;20007;-79
2022/06/15 06:13:18;;;;;;;;;;;25.20;43.40;;;;;;5032777;28;19932;-80
2022/06/15 06:15:44;;;;;;;;;;;25.80;42.20;;;;;;5032895;28;20007;-79
2022/06/15 06:18:09;;;;;;;;;;;26.30;41.50;;;;;;5032965;28;20493;-80
2022/06/15 06:20:35;;;;;;;;;;;26.70;41.00;;;;;;5031999;28;19920;-80
2022/06/15 06:23:00;;;;;;;;;;;27.00;40.50;;;;;;5031769;28;20353;-80
2022/06/15 06:25:26;;;;;;;;;;;27.30;40.20;;;;;;5031382;28;19913;-80
2022/06/15 06:27:52;;;;;;;;;;;27.50;39.70;;;;;;5032568;28;19996;-80
2022/06/15 06:30:21;;;;;;;;;;;27.70;39.50;;;;;;5031700;28;19932;-80
2022/06/15 06:32:47;;;;;;;;;;;27.80;39.40;;;;;;5032493;28;20008;-80
2022/06/15 06:35:12;;;;;;;;;;;27.90;39.10;;;;;;5032599;28;20352;-80
2022/06/15 06:37:38;;;;;;;;;;;27.90;38.90;;;;;;5031186;28;19923;-80
2022/06/15 06:40:04;;;;;;;;;;;28.10;39.10;;;;;;5031611;28;20442;-80
2022/06/15 06:42:30;;;;;;;;;;;28.10;38.80;;;;;;5032281;28;19909;-80
2022/06/15 06:44:55;;;;;;;;;;;28.10;38.80;;;;;;5032278;28;19963;-80
2022/06/15 06:47:20;;;;;;;;;;;28.20;38.70;;;;;;5030855;28;20308;-80
2022/06/15 06:49:46;;;;;;;;;;;28.20;38.70;;;;;;5031489;28;19967;-80
2022/06/15 06:52:12;;;;;;;;;;;28.20;38.70;;;;;;5030908;28;19913;-80
2022/06/15 06:54:38;;;;;;;;;;;28.20;38.60;;;;;;5031052;28;19913;-80
2022/06/15 06:57:04;;;;;;;;;;;28.20;38.50;;;;;;5030926;28;19913;-81
2022/06/15 06:59:29;;;;;;;;;;;28.30;38.30;;;;;;5031132;28;19968;-80
2022/06/15 07:01:55;;;;;;;;;;;28.30;38.30;;;;;;5032036;28;19959;-80
2022/06/15 07:04:20;;;;;;;;;;;28.30;38.10;;;;;;5031905;28;20289;-81
2022/06/15 07:06:46;;;;;;;;;;;28.40;37.90;;;;;;5030821;28;20365;-80
2022/06/15 07:09:11;;;;;;;;;;;28.50;37.60;;;;;;5030617;28;19913;-80
2022/06/15 07:11:37;;;;;;;;;;;28.50;37.40;;;;;;5030486;28;19921;-79
2022/06/15 07:14:03;;;;;;;;;;;28.70;37.30;;;;;;5031375;28;20007;-80
2022/06/15 07:16:29;;;;;;;;;;;28.70;36.80;;;;;;5035240;28;19920;-80
2022/06/15 07:18:55;;;;;;;;;;;28.90;37.20;;;;;;5033539;28;20450;-77
2022/06/15 07:21:23;;;;;;;;;;;29.10;36.40;;;;;;5032277;28;20288;-80
2022/06/15 07:23:49;;;;;;;;;;;29.10;36.10;;;;;;5030751;28;20029;-80
2022/06/15 07:26:18;;;;;;;;;;;29.30;35.80;;;;;;5037677;28;19920;-80
2022/06/15 07:28:43;;;;;;;;;;;29.50;35.60;;;;;;5030288;28;19959;-79
2022/06/15 07:31:09;;;;;;;;;;;29.60;35.30;;;;;;5032003;28;19921;-78
2022/06/15 07:33:36;;;;;;;;;;;29.90;35.20;;;;;;5030420;28;19909;-77
2022/06/15 07:36:02;;;;;;;;;;;29.90;34.50;;;;;;5031549;28;19980;-78
2022/06/15 07:38:27;;;;;;;;;;;30.10;35.40;;;;;;5030991;28;20384;-77
2022/06/15 07:40:53;;;;;;;;;;;30.20;34.60;;;;;;5030055;28;19913;-77
2022/06/15 07:43:19;;;;;;;;;;;30.30;34.70;;;;;;5037951;28;19916;-76
2022/06/15 07:45:45;;;;;;;;;;;30.30;34.50;;;;;;5041726;28;19936;-76
2022/06/15 07:50:55;;;;;;;;;;;30.30;34.60;;;;;;5047078;28;20031;-77
2022/06/15 07:53:20;;;;;;;;;;;30.20;34.90;;;;;;5050918;28;19921;-78
2022/06/15 07:55:46;;;;;;;;;;;30.10;35.30;;;;;;5051308;28;20012;-79
2022/06/15 07:58:12;;;;;;;;;;;30.00;35.60;;;;;;5051622;28;20007;-77
2022/06/15 08:00:39;;;;;;;;;;;29.80;35.70;;;;;;5035554;28;19913;-77
2022/06/15 08:03:05;;;;;;;;;;;29.70;35.90;;;;;;5031499;28;19932;-77
2022/06/15 08:05:35;;;;;;;;;;;29.60;36.00;;;;;;5030665;28;19909;-78
2022/06/15 08:08:06;;;;;;;;;;;29.40;36.10;;;;;;5032345;28;19995;-79
2022/06/15 08:10:34;;;;;;;;;;;29.20;35.80;;;;;;5031317;28;19975;-78
2022/06/15 08:12:59;;;;;;;;;;;29.00;36.10;;;;;;5031603;28;19910;-78
2022/06/15 08:15:25;;;;;;;;;;;29.00;35.70;;;;;;5031195;28;19910;-78
2022/06/15 08:17:56;;;;;;;;;;;28.90;35.30;;;;;;5029483;28;19925;-78
2022/06/15 08:20:24;;;;;;;;;;;28.90;35.10;;;;;;5016793;28;19910;-78
2022/06/15 08:22:53;;;;;;;;;;;29.00;35.40;;;;;;5027766;28;19921;-77
2022/06/15 08:25:24;;;;;;;;;;;29.10;35.10;;;;;;5030073;28;20268;-77
2022/06/15 08:27:49;;;;;;;;;;;29.20;35.10;;;;;;5030886;28;20000;-77
2022/06/15 08:30:16;;;;;;;;;;;29.10;34.70;;;;;;5029971;28;20005;-77
2022/06/15 08:32:41;;;;;;;;;;;29.10;34.80;;;;;;5026103;28;19920;-77
2022/06/15 08:35:07;;;;;;;;;;;29.10;34.60;;;;;;5023132;28;19966;-78
2022/06/15 08:37:35;;;;;;;;;;;29.40;35.00;;;;;;5027678;28;20281;-78
2022/06/15 08:40:02;;;;;;;;;;;29.50;34.80;;;;;;5029698;28;19909;-80
2022/06/15 08:42:40;;;;;;;;;;;29.60;34.60;;;;;;5015609;28;20013;-79
2022/06/15 08:45:15;;;;;;;;;;;29.60;34.70;;;;;;5008066;28;19910;-81
2022/06/15 08:47:48;;;;;;;;;;;29.50;35.00;;;;;;5020243;28;19913;-77
2022/06/15 08:50:49;;;;;;;;;;;29.40;35.20;;;;;;5028954;28;19944;-77
2022/06/15 08:53:24;;;;;;;;;;;29.40;35.20;;;;;;5023096;28;20340;-82
2022/06/15 08:55:56;;;;;;;;;;;29.10;35.30;;;;;;5024559;28;19976;-83
2022/06/15 08:58:32;;;;;;;;;;;29.00;35.80;;;;;;5048910;28;19935;-79
2022/06/15 09:01:04;;;;;;;;;;;28.90;36.00;;;;;;5051496;28;19951;-78
2022/06/15 09:03:36;;;;;;;;;;;29.00;36.10;;;;;;5050650;28;19913;-78
2022/06/15 09:06:10;;;;;;;;;;;28.90;36.40;;;;;;5049972;28;20408;-79
2022/06/15 09:08:49;;;;;;;;;;;28.90;36.40;;;;;;5046859;28;19963;-80
2022/06/15 09:11:23;;;;;;;;;;;28.90;36.30;;;;;;5029129;28;19909;-80
2022/06/15 09:14:07;;;;;;;;;;;28.80;36.60;;;;;;5045074;28;19916;-78
2022/06/15 09:16:41;;;;;;;;;;;28.70;36.70;;;;;;5044861;28;19917;-77
2022/06/15 09:19:09;;;;;;;;;;;28.70;36.70;;;;;;5029035;28;19917;-79
2022/06/15 09:21:42;;;;;;;;;;;28.70;36.70;;;;;;5041753;28;19917;-77
2022/06/15 09:24:10;;;;;;;;;;;28.60;36.80;;;;;;5047426;28;20281;-77
2022/06/15 09:26:38;;;;;;;;;;;28.60;36.90;;;;;;5042281;28;19916;-77
2022/06/15 09:29:10;;;;;;;;;;;28.60;37.10;;;;;;5041975;28;20360;-77
2022/06/15 09:31:40;;;;;;;;;;;28.60;37.00;;;;;;5018912;28;20293;-77
2022/06/15 09:34:07;;;;;;;;;;;28.60;37.10;;;;;;5030946;28;19955;-79
2022/06/15 09:36:35;;;;;;;;;;;28.60;37.30;;;;;;5026107;28;19917;-78
2022/06/15 09:39:02;;;;;;;;;;;28.60;37.40;;;;;;5033684;28;19913;-78
2022/06/15 09:41:33;;;;;;;;;;;28.50;37.80;;;;;;5044080;28;19921;-78
2022/06/15 09:44:17;;;;;;;;;;;28.40;37.80;;;;;;5032770;28;19948;-79
2022/06/15 09:46:46;;;;;;;;;;;28.30;38.20;;;;;;5037662;28;19916;-79
2022/06/15 09:49:12;;;;;;;;;;;28.10;38.60;;;;;;5036834;28;19913;-80
2022/06/15 09:51:50;;;;;;;;;;;28.00;38.80;;;;;;5037739;28;19979;-79
2022/06/15 09:54:24;;;;;;;;;;;27.80;39.20;;;;;;5041342;28;19909;-79
2022/06/15 09:56:50;;;;;;;;;;;27.80;39.40;;;;;;5040834;28;19913;-79
2022/06/15 09:59:18;;;;;;;;;;;27.60;39.50;;;;;;5039274;28;20293;-79
2022/06/15 10:01:45;;;;;;;;;;;27.60;39.90;;;;;;5036864;28;20328;-81
2022/06/15 10:06:45;;;;;;;;;;;27.30;40.10;;;;;;5030563;28;19929;-70
2022/06/15 10:09:12;;;;;;;;;;;27.20;40.30;;;;;;5032539;28;19913;-71
2022/06/15 10:11:51;;;;;;;;;;;27.10;40.50;;;;;;5032333;28;20353;-67
2022/06/15 10:14:25;;;;;;;;;;;27.10;40.70;;;;;;5032916;28;19909;-67
2022/06/15 10:16:53;;;;;;;;;;;27.00;40.80;;;;;;5034156;28;19971;-69
2022/06/15 10:19:19;;;;;;;;;;;26.90;40.90;;;;;;5032237;28;20016;-69
2022/06/15 10:21:50;;;;;;;;;;;26.90;41.20;;;;;;5031376;28;19949;-69
2022/06/15 10:24:15;;;;;;;;;;;26.80;41.30;;;;;;5031866;28;20428;-67
2022/06/15 10:26:41;;;;;;;;;;;26.70;41.50;;;;;;5032571;28;19955;-69
2022/06/15 10:29:15;;;;;;;;;;;26.60;41.60;;;;;;5031457;28;20024;-68
2022/06/15 10:31:42;;;;;;;;;;;26.50;41.60;;;;;;5032979;28;19913;-68
2022/06/15 10:34:19;;;;;;;;;;;26.40;41.80;;;;;;5031155;28;19959;-70
2022/06/15 10:36:50;;;;;;;;;;;26.40;42.00;;;;;;5032170;28;19960;-70
2022/06/15 10:39:20;;;;;;;;;;;26.30;42.20;;;;;;5032007;28;19909;-67
2022/06/15 10:41:46;;;;;;;;;;;26.30;42.30;;;;;;5031084;28;19958;-68
2022/06/15 10:44:23;;;;;;;;;;;26.20;42.40;;;;;;5031457;28;19913;-70
2022/06/15 10:46:54;;;;;;;;;;;26.20;42.50;;;;;;5030937;28;20419;-69
2022/06/15 10:49:20;;;;;;;;;;;26.10;42.60;;;;;;5031007;28;19913;-69
2022/06/15 10:51:45;;;;;;;;;;;26.10;42.70;;;;;;5032059;28;20358;-70
2022/06/15 10:54:31;;;;;;;;;;;26.00;42.80;;;;;;5032227;28;19964;-69
2022/06/15 11:02:43;;;;;;;;;;;25.90;43.00;;;;;;5032355;28;19967;-69
2022/06/15 11:05:09;;;;;;;;;;;25.90;43.10;;;;;;5030874;28;19921;-69
2022/06/15 11:07:44;;;;;;;;;;;25.80;43.10;;;;;;5032149;28;20350;-69
2022/06/15 11:10:13;;;;;;;;;;;25.80;43.20;;;;;;5030115;28;19920;-69
2022/06/15 11:12:46;;;;;;;;;;;25.80;43.30;;;;;;5030995;28;19913;-68
2022/06/15 11:15:19;;;;;;;;;;;25.70;43.40;;;;;;5030343;28;19909;-69
2022/06/15 11:18:06;;;;;;;;;;;25.70;43.50;;;;;;5030891;28;20048;-67
2022/06/15 11:20:46;;;;;;;;;;;25.70;43.50;;;;;;5030663;28;20345;-68
2022/06/15 11:23:16;;;;;;;;;;;25.70;43.60;;;;;;5030346;28;20016;-70
2022/06/15 11:25:47;;;;;;;;;;;25.70;43.70;;;;;;5030710;28;19916;-68
2022/06/15 11:28:16;;;;;;;;;;;25.60;43.70;;;;;;5030521;28;19963;-70
2022/06/15 11:30:46;;;;;;;;;;;25.60;43.70;;;;;;5030444;28;20007;-71
2022/06/15 11:33:24;;;;;;;;;;;25.60;43.80;;;;;;5030191;28;19909;-69
2022/06/15 11:36:13;;;;;;;;;;;25.60;43.90;;;;;;5030526;28;20004;-69
2022/06/15 11:38:41;;;;;;;;;;;25.50;43.80;;;;;;5031119;28;19940;-70
2022/06/15 11:41:07;;;;;;;;;;;25.50;43.80;;;;;;5030631;28;19909;-66
2022/06/15 11:43:36;;;;;;;;;;;25.50;43.90;;;;;;5030238;28;20319;-71
2022/06/15 11:46:03;;;;;;;;;;;25.50;44.00;;;;;;5030327;28;19909;-69
2022/06/15 11:48:32;;;;;;;;;;;25.40;44.00;;;;;;5030306;28;19909;-70
2022/06/15 11:51:18;;;;;;;;;;;25.40;44.00;;;;;;5030289;28;20273;-70
2022/06/15 11:53:54;;;;;;;;;;;25.40;44.00;;;;;;5030320;28;20054;-71
2022/06/15 11:56:21;;;;;;;;;;;25.40;44.00;;;;;;5029872;28;20360;-69
2022/06/15 11:59:04;;;;;;;;;;;25.40;44.10;;;;;;5030041;28;19916;-71
2022/06/15 12:01:40;;;;;;;;;;;25.40;44.10;;;;;;5029892;28;19940;-69
2022/06/15 12:04:09;;;;;;;;;;;25.40;44.20;;;;;;5029676;28;19909;-68
2022/06/15 12:06:34;;;;;;;;;;;25.40;44.20;;;;;;5030033;28;19955;-70
2022/06/15 12:09:24;;;;;;;;;;;25.40;44.20;;;;;;5029551;28;19957;-68
2022/06/15 12:14:37;;;;;;;;;;;25.40;44.20;;;;;;5031575;28;19912;-68
2022/06/15 12:17:17;;;;;;;;;;;25.40;44.30;;;;;;5030358;28;19917;-71
2022/06/15 12:19:47;;;;;;;;;;;25.40;44.30;;;;;;5030074;28;19917;-69
2022/06/15 12:22:12;;;;;;;;;;;25.30;44.30;;;;;;5033093;28;19916;-69
2022/06/15 12:24:58;;;;;;;;;;;25.40;44.40;;;;;;5033102;28;20265;-67
2022/06/15 12:27:37;;;;;;;;;;;25.30;44.30;;;;;;5033083;28;19920;-69
2022/06/15 12:30:03;;;;;;;;;;;25.40;44.40;;;;;;5033915;28;19910;-70
2022/06/15 12:32:41;;;;;;;;;;;25.30;44.40;;;;;;5033751;28;20126;-71
2022/06/15 12:35:12;;;;;;;;;;;25.40;44.40;;;;;;5033907;28;19909;-71
2022/06/15 12:37:41;;;;;;;;;;;25.30;44.50;;;;;;5034725;28;19967;-70
2022/06/15 12:40:12;;;;;;;;;;;25.30;44.50;;;;;;5033592;28;20328;-70
2022/06/15 12:42:41;;;;;;;;;;;25.30;44.50;;;;;;5032996;28;20266;-69
2022/06/15 12:45:13;;;;;;;;;;;25.30;44.50;;;;;;5033423;28;19932;-67
2022/06/15 12:47:39;;;;;;;;;;;25.30;44.50;;;;;;5032927;28;19913;-71
2022/06/15 12:50:05;;;;;;;;;;;25.30;44.50;;;;;;5034040;28;20003;-70
2022/06/15 12:52:39;;;;;;;;;;;25.30;44.50;;;;;;5034436;28;20376;-68
2022/06/15 12:55:09;;;;;;;;;;;25.30;44.50;;;;;;5034464;28;19917;-71
2022/06/15 12:57:38;;;;;;;;;;;25.30;44.50;;;;;;5034456;28;19920;-70
2022/06/15 13:00:14;;;;;;;;;;;25.30;44.50;;;;;;5033115;28;20064;-68
2022/06/15 13:02:58;;;;;;;;;;;25.30;44.50;;;;;;5032556;28;19913;-70
2022/06/15 13:05:26;;;;;;;;;;;25.30;44.50;;;;;;5032958;28;19921;-69
2022/06/15 13:08:11;;;;;;;;;;;25.30;44.50;;;;;;5032478;28;20320;-70
2022/06/15 13:10:38;;;;;;;;;;;25.30;44.50;;;;;;5032694;28;20008;-69
2022/06/15 13:13:04;;;;;;;;;;;25.30;44.50;;;;;;5032688;28;19917;-67
2022/06/15 13:15:30;;;;;;;;;;;25.30;44.50;;;;;;5032501;28;20484;-69
2022/06/15 13:18:14;;;;;;;;;;;25.30;44.50;;;;;;5032858;28;19917;-67
2022/06/15 13:20:45;;;;;;;;;;;25.30;44.50;;;;;;5032493;28;19909;-69
2022/06/15 13:23:15;;;;;;;;;;;25.30;44.50;;;;;;5032139;28;20028;-71
2022/06/15 13:25:51;;;;;;;;;;;25.30;44.50;;;;;;5032543;28;20004;-68
2022/06/15 13:28:22;;;;;;;;;;;25.30;44.50;;;;;;5032187;28;19910;-70
2022/06/15 13:30:48;;;;;;;;;;;25.30;44.40;;;;;;5033726;28;19909;-69
2022/06/15 13:33:14;;;;;;;;;;;25.20;44.40;;;;;;5030190;28;19918;-67
2022/06/15 13:35:41;;;;;;;;;;;25.20;44.40;;;;;;5016648;28;19920;-68
2022/06/15 13:38:16;;;;;;;;;;;25.20;44.40;;;;;;5014241;28;19960;-71
2022/06/15 13:41:01;;;;;;;;;;;25.30;44.40;;;;;;5012244;28;19992;-78
2022/06/15 13:43:27;;;;;;;;;;;25.20;44.40;;;;;;5013522;28;19909;-80
2022/06/15 13:45:55;;;;;;;;;;;25.20;44.40;;;;;;5012162;28;19925;-70
2022/06/15 13:48:29;;;;;;;;;;;25.20;44.40;;;;;;5012662;28;19956;-71
2022/06/15 13:50:57;;;;;;;;;;;25.20;44.40;;;;;;5012609;28;19917;-71
2022/06/15 13:53:26;;;;;;;;;;;25.20;44.40;;;;;;5011988;28;20081;-69
2022/06/15 13:56:10;;;;;;;;;;;25.20;44.40;;;;;;5012619;28;19932;-68
2022/06/15 13:58:56;;;;;;;;;;;25.20;44.50;;;;;;5032647;23;19968;-82
2022/06/15 14:01:27;;;;;;;;;;;25.20;44.50;;;;;;5064052;28;20342;-82
2022/06/15 14:04:06;;;;;;;;;;;25.30;44.50;;;;;;5040188;28;19905;-82
2022/06/15 14:06:44;;;;;;;;;;;25.20;44.60;;;;;;5068297;28;19905;-82
2022/06/15 14:09:18;;;;;;;;;;;25.20;44.80;;;;;;5036792;28;19972;-81
2022/06/15 14:12:04;;;;;;;;;;;25.20;45.00;;;;;;5049615;28;20292;-81
2022/06/15 14:14:39;;;;;;;;;;;25.20;45.00;;;;;;5005411;28;19921;-81
2022/06/15 14:17:19;;;;;;;;;;;25.10;45.00;;;;;;5009387;28;19918;-82
2022/06/15 14:19:47;;;;;;;;;;;25.10;45.00;;;;;;5010211;28;19916;-82
2022/06/15 14:22:16;;;;;;;;;;;25.10;45.00;;;;;;5009067;28;19909;-82
2022/06/15 14:24:41;;;;;;;;;;;25.10;45.00;;;;;;5012523;28;19916;-81
2022/06/15 14:27:08;;;;;;;;;;;25.10;45.10;;;;;;5014029;28;19914;-81
2022/06/15 14:29:41;;;;;;;;;;;25.20;45.10;;;;;;5010290;28;19972;-80
2022/06/15 14:32:06;;;;;;;;;;;25.10;45.10;;;;;;5010877;28;19920;-81
2022/06/15 14:34:35;;;;;;;;;;;25.10;45.20;;;;;;5008770;28;19991;-81
2022/06/15 14:37:02;;;;;;;;;;;25.00;45.20;;;;;;5011849;28;19914;-81
2022/06/15 14:39:32;;;;;;;;;;;25.10;45.20;;;;;;5011494;28;20007;-81
2022/06/15 14:42:01;;;;;;;;;;;25.10;45.30;;;;;;5007735;28;21291;-81
2022/06/15 14:44:28;;;;;;;;;;;25.10;45.30;;;;;;5010908;28;19909;-81